ソウル/仁川 の空港の天気 - METARとTAF

仁川国際空港 ( RKSI / ICN ) - 韓国 仁川広域市 (ソウル特別市近郊)
飛行場実況気象(Metar)
観測時間01/19 06:30 KST (01/18 21:30 UTC)
風向・風速北北西 1m/s
視程10km以上
天気現象
なし
気温-2℃
湿度43%
気圧1026hPa
METARRKSI 182130Z 34002KT CAVOK M02/M13 Q1026 NOSIG
過去の天気等 Google飛行場航空写真 Wunderground天気予報

過去48時間のMETAR

飛行場予報(TAF)
発表時間: 1/19 02:00 KST (1/18 17:00 UTC)
予報対象時間: 19日3時 KST ~ 20日9時 KST
風向・風速北北西 3m/s
視程7,000m
なし
19日11時 KST ~ 19日12時 KST に徐々に
風向・風速西南西 4m/s
19日22時 KST ~ 19日23時 KST に徐々に
風向・風速南南西 4m/s
視程4,200m
天気現象もや
少しの雲 雲底高度 300m
全天の4割程度の雲 雲底高度 910m
20日7時 KST ~ 20日8時 KST に徐々に
風向・風速西南西 4m/s
視程8,000m
天気現象運行に影響にある天気現象が終了
TAF RKSI 181700Z 1818/1924 34006KT 7000 NSC TNM03/1822Z TX03/1905Z TN00/1921Z
BECMG 1902/1903 24007KT
BECMG 1913/1914 21007KT 4200 BR FEW010 SCT030
BECMG 1922/1923 24008KT 8000 NSW